sensor_id;sensor_type;location;lat;lon;timestamp;temperature;humidity
51902;DHT22;37929;53.218;6.548;2022-08-25T00:01:13;22.20;99.90
51902;DHT22;37929;53.218;6.548;2022-08-25T00:03:43;22.10;99.90
51902;DHT22;37929;53.218;6.548;2022-08-25T00:06:10;22.20;99.90
51902;DHT22;37929;53.218;6.548;2022-08-25T00:08:37;22.10;99.90
51902;DHT22;37929;53.218;6.548;2022-08-25T00:11:10;22.10;99.90
51902;DHT22;37929;53.218;6.548;2022-08-25T00:13:38;22.10;99.90
51902;DHT22;37929;53.218;6.548;2022-08-25T00:16:04;22.10;99.90
51902;DHT22;37929;53.218;6.548;2022-08-25T00:18:30;22.20;99.90
51902;DHT22;37929;53.218;6.548;2022-08-25T00:20:55;22.10;99.90
51902;DHT22;37929;53.218;6.548;2022-08-25T00:23:21;22.20;99.90
51902;DHT22;37929;53.218;6.548;2022-08-25T00:25:48;22.20;99.90
51902;DHT22;37929;53.218;6.548;2022-08-25T00:28:15;22.10;99.90
51902;DHT22;37929;53.218;6.548;2022-08-25T00:30:41;22.10;99.90
51902;DHT22;37929;53.218;6.548;2022-08-25T00:33:07;22.10;99.90
51902;DHT22;37929;53.218;6.548;2022-08-25T00:35:33;22.10;99.90
51902;DHT22;37929;53.218;6.548;2022-08-25T00:38:00;22.10;99.90
51902;DHT22;37929;53.218;6.548;2022-08-25T00:40:27;22.10;99.90
51902;DHT22;37929;53.218;6.548;2022-08-25T00:42:53;22.00;99.90
51902;DHT22;37929;53.218;6.548;2022-08-25T00:45:21;22.10;99.90
51902;DHT22;37929;53.218;6.548;2022-08-25T00:47:48;22.00;99.90
51902;DHT22;37929;53.218;6.548;2022-08-25T00:50:15;22.00;99.90
51902;DHT22;37929;53.218;6.548;2022-08-25T00:52:48;22.00;99.90
51902;DHT22;37929;53.218;6.548;2022-08-25T00:55:26;22.00;99.90
51902;DHT22;37929;53.218;6.548;2022-08-25T00:57:59;22.00;99.90
51902;DHT22;37929;53.218;6.548;2022-08-25T01:00:54;21.90;99.90
51902;DHT22;37929;53.218;6.548;2022-08-25T01:03:25;22.00;99.90
51902;DHT22;37929;53.218;6.548;2022-08-25T01:05:53;21.90;99.90
51902;DHT22;37929;53.218;6.548;2022-08-25T01:08:21;21.90;99.90
51902;DHT22;37929;53.218;6.548;2022-08-25T01:10:50;21.90;99.90
51902;DHT22;37929;53.218;6.548;2022-08-25T01:13:43;21.90;99.90
51902;DHT22;37929;53.218;6.548;2022-08-25T01:16:11;21.90;99.90
51902;DHT22;37929;53.218;6.548;2022-08-25T01:18:46;21.90;99.90
51902;DHT22;37929;53.218;6.548;2022-08-25T01:21:12;21.90;99.90
51902;DHT22;37929;53.218;6.548;2022-08-25T01:23:38;21.90;99.90
51902;DHT22;37929;53.218;6.548;2022-08-25T01:26:15;21.90;99.90
51902;DHT22;37929;53.218;6.548;2022-08-25T01:28:46;21.90;99.90
51902;DHT22;37929;53.218;6.548;2022-08-25T01:31:32;21.80;99.90
51902;DHT22;37929;53.218;6.548;2022-08-25T01:33:59;21.80;99.90
51902;DHT22;37929;53.218;6.548;2022-08-25T01:36:26;21.80;99.90
51902;DHT22;37929;53.218;6.548;2022-08-25T01:38:53;21.80;99.90
51902;DHT22;37929;53.218;6.548;2022-08-25T01:43:59;21.80;99.90
51902;DHT22;37929;53.218;6.548;2022-08-25T01:46:26;21.80;99.90
51902;DHT22;37929;53.218;6.548;2022-08-25T01:48:52;21.70;99.90
51902;DHT22;37929;53.218;6.548;2022-08-25T01:51:20;21.70;99.90
51902;DHT22;37929;53.218;6.548;2022-08-25T01:53:48;21.80;99.90
51902;DHT22;37929;53.218;6.548;2022-08-25T01:56:16;21.80;99.90
51902;DHT22;37929;53.218;6.548;2022-08-25T01:58:46;21.70;99.90
51902;DHT22;37929;53.218;6.548;2022-08-25T02:01:19;21.70;99.90
51902;DHT22;37929;53.218;6.548;2022-08-25T02:03:47;21.70;99.90
51902;DHT22;37929;53.218;6.548;2022-08-25T02:06:17;21.60;99.90
51902;DHT22;37929;53.218;6.548;2022-08-25T02:08:43;21.60;99.90
51902;DHT22;37929;53.218;6.548;2022-08-25T02:11:14;21.60;99.90
51902;DHT22;37929;53.218;6.548;2022-08-25T02:13:41;21.60;99.90
51902;DHT22;37929;53.218;6.548;2022-08-25T02:16:09;21.60;99.90
51902;DHT22;37929;53.218;6.548;2022-08-25T02:18:35;21.60;99.90
51902;DHT22;37929;53.218;6.548;2022-08-25T02:21:01;21.60;99.90
51902;DHT22;37929;53.218;6.548;2022-08-25T02:23:27;21.50;99.90
51902;DHT22;37929;53.218;6.548;2022-08-25T02:25:53;21.50;99.90
51902;DHT22;37929;53.218;6.548;2022-08-25T02:28:21;21.50;99.90
51902;DHT22;37929;53.218;6.548;2022-08-25T02:30:48;21.50;99.90
51902;DHT22;37929;53.218;6.548;2022-08-25T02:33:14;21.50;99.90
51902;DHT22;37929;53.218;6.548;2022-08-25T02:35:39;21.50;99.90
51902;DHT22;37929;53.218;6.548;2022-08-25T02:38:09;21.50;99.90
51902;DHT22;37929;53.218;6.548;2022-08-25T02:40:35;21.40;99.90
51902;DHT22;37929;53.218;6.548;2022-08-25T02:43:01;21.40;99.90
51902;DHT22;37929;53.218;6.548;2022-08-25T02:45:27;21.40;99.90
51902;DHT22;37929;53.218;6.548;2022-08-25T02:47:53;21.40;99.90
51902;DHT22;37929;53.218;6.548;2022-08-25T02:50:19;21.40;99.90
51902;DHT22;37929;53.218;6.548;2022-08-25T02:52:45;21.40;99.90
51902;DHT22;37929;53.218;6.548;2022-08-25T02:55:11;21.40;99.90
51902;DHT22;37929;53.218;6.548;2022-08-25T02:57:39;21.30;99.90
51902;DHT22;37929;53.218;6.548;2022-08-25T03:00:10;21.30;99.90
51902;DHT22;37929;53.218;6.548;2022-08-25T03:02:37;21.30;99.90
51902;DHT22;37929;53.218;6.548;2022-08-25T03:05:06;21.30;99.90
51902;DHT22;37929;53.218;6.548;2022-08-25T03:07:34;21.30;99.90
51902;DHT22;37929;53.218;6.548;2022-08-25T03:10:05;21.20;99.90
51902;DHT22;37929;53.218;6.548;2022-08-25T03:12:30;21.20;99.90
51902;DHT22;37929;53.218;6.548;2022-08-25T03:14:56;21.20;99.90
51902;DHT22;37929;53.218;6.548;2022-08-25T03:17:22;21.20;99.90
51902;DHT22;37929;53.218;6.548;2022-08-25T03:19:48;21.20;99.90
51902;DHT22;37929;53.218;6.548;2022-08-25T03:22:13;21.20;99.90
51902;DHT22;37929;53.218;6.548;2022-08-25T03:24:39;21.20;99.90
51902;DHT22;37929;53.218;6.548;2022-08-25T03:27:05;21.10;99.90
51902;DHT22;37929;53.218;6.548;2022-08-25T03:29:32;21.10;99.90
51902;DHT22;37929;53.218;6.548;2022-08-25T03:31:58;21.20;99.90
51902;DHT22;37929;53.218;6.548;2022-08-25T03:34:28;21.10;99.90
51902;DHT22;37929;53.218;6.548;2022-08-25T03:36:54;21.10;99.90
51902;DHT22;37929;53.218;6.548;2022-08-25T03:39:22;21.10;99.90
51902;DHT22;37929;53.218;6.548;2022-08-25T03:41:48;21.00;99.90
51902;DHT22;37929;53.218;6.548;2022-08-25T03:44:16;21.00;99.90
51902;DHT22;37929;53.218;6.548;2022-08-25T03:46:45;21.00;99.90
51902;DHT22;37929;53.218;6.548;2022-08-25T03:49:13;21.00;99.90
51902;DHT22;37929;53.218;6.548;2022-08-25T03:51:44;21.00;99.90
51902;DHT22;37929;53.218;6.548;2022-08-25T03:54:16;21.00;99.90
51902;DHT22;37929;53.218;6.548;2022-08-25T03:56:42;20.90;99.90
51902;DHT22;37929;53.218;6.548;2022-08-25T03:59:09;20.90;99.90
51902;DHT22;37929;53.218;6.548;2022-08-25T04:01:36;20.90;99.90
51902;DHT22;37929;53.218;6.548;2022-08-25T04:04:03;20.90;99.90
51902;DHT22;37929;53.218;6.548;2022-08-25T04:06:29;20.80;99.90
51902;DHT22;37929;53.218;6.548;2022-08-25T04:08:55;20.80;99.90
51902;DHT22;37929;53.218;6.548;2022-08-25T04:11:23;20.80;99.90
51902;DHT22;37929;53.218;6.548;2022-08-25T04:13:50;20.80;99.90
51902;DHT22;37929;53.218;6.548;2022-08-25T04:16:19;20.80;99.90
51902;DHT22;37929;53.218;6.548;2022-08-25T04:18:46;20.80;99.90
51902;DHT22;37929;53.218;6.548;2022-08-25T04:21:14;20.70;99.90
51902;DHT22;37929;53.218;6.548;2022-08-25T04:23:43;20.70;99.90
51902;DHT22;37929;53.218;6.548;2022-08-25T04:26:15;20.70;99.90
51902;DHT22;37929;53.218;6.548;2022-08-25T04:28:41;20.70;99.90
51902;DHT22;37929;53.218;6.548;2022-08-25T04:31:09;20.70;99.90
51902;DHT22;37929;53.218;6.548;2022-08-25T04:33:36;20.70;99.90
51902;DHT22;37929;53.218;6.548;2022-08-25T04:36:04;20.70;99.90
51902;DHT22;37929;53.218;6.548;2022-08-25T04:38:31;20.60;99.90
51902;DHT22;37929;53.218;6.548;2022-08-25T04:40:59;20.70;99.90
51902;DHT22;37929;53.218;6.548;2022-08-25T04:43:25;20.60;99.90
51902;DHT22;37929;53.218;6.548;2022-08-25T04:45:52;20.60;99.90
51902;DHT22;37929;53.218;6.548;2022-08-25T04:48:18;20.60;99.90
51902;DHT22;37929;53.218;6.548;2022-08-25T04:50:44;20.60;99.90
51902;DHT22;37929;53.218;6.548;2022-08-25T04:53:10;20.60;99.90
51902;DHT22;37929;53.218;6.548;2022-08-25T04:55:44;20.60;99.90
51902;DHT22;37929;53.218;6.548;2022-08-25T04:58:11;20.60;99.90
51902;DHT22;37929;53.218;6.548;2022-08-25T05:00:38;20.50;99.90
51902;DHT22;37929;53.218;6.548;2022-08-25T05:03:04;20.50;99.90
51902;DHT22;37929;53.218;6.548;2022-08-25T05:05:31;20.50;99.90
51902;DHT22;37929;53.218;6.548;2022-08-25T05:07:57;20.50;99.90
51902;DHT22;37929;53.218;6.548;2022-08-25T05:10:24;20.50;99.90
51902;DHT22;37929;53.218;6.548;2022-08-25T05:12:49;20.50;99.90
51902;DHT22;37929;53.218;6.548;2022-08-25T05:15:15;20.50;99.90
51902;DHT22;37929;53.218;6.548;2022-08-25T05:17:59;20.50;99.90
51902;DHT22;37929;53.218;6.548;2022-08-25T05:20:25;20.50;99.90
51902;DHT22;37929;53.218;6.548;2022-08-25T05:22:51;20.50;99.90
51902;DHT22;37929;53.218;6.548;2022-08-25T05:25:17;20.50;99.90
51902;DHT22;37929;53.218;6.548;2022-08-25T05:27:43;20.50;99.90
51902;DHT22;37929;53.218;6.548;2022-08-25T05:30:10;20.50;99.90
51902;DHT22;37929;53.218;6.548;2022-08-25T05:32:36;20.50;99.90
51902;DHT22;37929;53.218;6.548;2022-08-25T05:35:04;20.50;99.90
51902;DHT22;37929;53.218;6.548;2022-08-25T05:37:30;20.50;99.90
51902;DHT22;37929;53.218;6.548;2022-08-25T05:39:55;20.50;99.90
51902;DHT22;37929;53.218;6.548;2022-08-25T05:42:21;20.50;99.90
51902;DHT22;37929;53.218;6.548;2022-08-25T05:44:48;20.50;99.90
51902;DHT22;37929;53.218;6.548;2022-08-25T05:47:13;20.50;99.90
51902;DHT22;37929;53.218;6.548;2022-08-25T05:49:39;20.50;99.90
51902;DHT22;37929;53.218;6.548;2022-08-25T05:52:05;20.50;99.90
51902;DHT22;37929;53.218;6.548;2022-08-25T05:54:30;20.60;99.90
51902;DHT22;37929;53.218;6.548;2022-08-25T05:56:57;20.60;99.90
51902;DHT22;37929;53.218;6.548;2022-08-25T05:59:23;20.60;99.90
51902;DHT22;37929;53.218;6.548;2022-08-25T06:01:55;20.60;99.90
51902;DHT22;37929;53.218;6.548;2022-08-25T06:04:39;20.70;99.90
51902;DHT22;37929;53.218;6.548;2022-08-25T06:07:04;20.70;99.90
51902;DHT22;37929;53.218;6.548;2022-08-25T06:09:30;20.70;99.90
51902;DHT22;37929;53.218;6.548;2022-08-25T06:11:56;20.70;99.90
51902;DHT22;37929;53.218;6.548;2022-08-25T06:14:23;20.80;99.90
51902;DHT22;37929;53.218;6.548;2022-08-25T06:16:49;20.80;99.90
51902;DHT22;37929;53.218;6.548;2022-08-25T06:19:16;20.80;99.90
51902;DHT22;37929;53.218;6.548;2022-08-25T06:21:42;20.90;99.90
51902;DHT22;37929;53.218;6.548;2022-08-25T06:24:09;20.90;99.90
51902;DHT22;37929;53.218;6.548;2022-08-25T06:26:36;21.00;99.90
51902;DHT22;37929;53.218;6.548;2022-08-25T06:29:02;21.00;99.90
51902;DHT22;37929;53.218;6.548;2022-08-25T06:31:28;21.00;99.90
51902;DHT22;37929;53.218;6.548;2022-08-25T06:33:54;21.10;99.90
51902;DHT22;37929;53.218;6.548;2022-08-25T06:36:20;21.10;99.90
51902;DHT22;37929;53.218;6.548;2022-08-25T06:38:47;21.20;99.90
51902;DHT22;37929;53.218;6.548;2022-08-25T06:41:12;21.20;99.90
51902;DHT22;37929;53.218;6.548;2022-08-25T06:43:40;21.30;99.90
51902;DHT22;37929;53.218;6.548;2022-08-25T06:46:17;21.30;99.90
51902;DHT22;37929;53.218;6.548;2022-08-25T06:48:43;21.30;99.90
51902;DHT22;37929;53.218;6.548;2022-08-25T06:51:14;21.40;99.90
51902;DHT22;37929;53.218;6.548;2022-08-25T06:53:41;21.40;99.90
51902;DHT22;37929;53.218;6.548;2022-08-25T06:56:08;21.50;99.90
51902;DHT22;37929;53.218;6.548;2022-08-25T06:58:35;21.50;99.90
51902;DHT22;37929;53.218;6.548;2022-08-25T07:01:18;21.60;99.90
51902;DHT22;37929;53.218;6.548;2022-08-25T07:03:47;21.60;99.90
51902;DHT22;37929;53.218;6.548;2022-08-25T07:06:13;21.60;99.90
51902;DHT22;37929;53.218;6.548;2022-08-25T07:08:39;21.70;99.90
51902;DHT22;37929;53.218;6.548;2022-08-25T07:11:06;21.80;99.90
51902;DHT22;37929;53.218;6.548;2022-08-25T07:13:32;21.90;99.90
51902;DHT22;37929;53.218;6.548;2022-08-25T07:15:59;21.90;99.90
51902;DHT22;37929;53.218;6.548;2022-08-25T07:18:24;22.00;99.90
51902;DHT22;37929;53.218;6.548;2022-08-25T07:20:51;22.00;99.90
51902;DHT22;37929;53.218;6.548;2022-08-25T07:23:18;22.10;99.90
51902;DHT22;37929;53.218;6.548;2022-08-25T07:25:44;22.20;99.90
51902;DHT22;37929;53.218;6.548;2022-08-25T07:28:10;22.30;99.90
51902;DHT22;37929;53.218;6.548;2022-08-25T07:30:40;22.30;99.90
51902;DHT22;37929;53.218;6.548;2022-08-25T07:33:05;22.40;99.90
51902;DHT22;37929;53.218;6.548;2022-08-25T07:35:31;22.50;99.90
51902;DHT22;37929;53.218;6.548;2022-08-25T07:37:58;22.50;99.90
51902;DHT22;37929;53.218;6.548;2022-08-25T07:40:30;22.60;99.90
51902;DHT22;37929;53.218;6.548;2022-08-25T07:42:58;22.60;99.90
51902;DHT22;37929;53.218;6.548;2022-08-25T07:45:27;22.70;99.90
51902;DHT22;37929;53.218;6.548;2022-08-25T07:48:01;22.70;99.90
51902;DHT22;37929;53.218;6.548;2022-08-25T07:50:28;22.80;99.90
51902;DHT22;37929;53.218;6.548;2022-08-25T07:52:55;22.90;99.90
51902;DHT22;37929;53.218;6.548;2022-08-25T07:55:25;22.90;99.90
51902;DHT22;37929;53.218;6.548;2022-08-25T07:57:55;23.00;99.90
51902;DHT22;37929;53.218;6.548;2022-08-25T08:00:21;23.10;99.90
51902;DHT22;37929;53.218;6.548;2022-08-25T08:02:48;23.10;99.90
51902;DHT22;37929;53.218;6.548;2022-08-25T08:05:14;23.20;99.90
51902;DHT22;37929;53.218;6.548;2022-08-25T08:07:40;23.30;99.90
51902;DHT22;37929;53.218;6.548;2022-08-25T08:10:07;23.40;99.90
51902;DHT22;37929;53.218;6.548;2022-08-25T08:12:34;23.50;99.90
51902;DHT22;37929;53.218;6.548;2022-08-25T08:15:01;23.50;99.90
51902;DHT22;37929;53.218;6.548;2022-08-25T08:17:27;23.60;99.90
51902;DHT22;37929;53.218;6.548;2022-08-25T08:19:53;23.70;99.90
51902;DHT22;37929;53.218;6.548;2022-08-25T08:22:19;23.80;99.90
51902;DHT22;37929;53.218;6.548;2022-08-25T08:24:46;23.80;99.90
51902;DHT22;37929;53.218;6.548;2022-08-25T08:27:12;23.90;99.90
51902;DHT22;37929;53.218;6.548;2022-08-25T08:29:39;24.00;99.90
51902;DHT22;37929;53.218;6.548;2022-08-25T08:32:07;24.10;99.90
51902;DHT22;37929;53.218;6.548;2022-08-25T08:34:33;24.20;99.90
51902;DHT22;37929;53.218;6.548;2022-08-25T08:37:00;24.40;99.90
51902;DHT22;37929;53.218;6.548;2022-08-25T08:39:27;24.50;99.90
51902;DHT22;37929;53.218;6.548;2022-08-25T08:45:24;24.80;99.90
51902;DHT22;37929;53.218;6.548;2022-08-25T08:47:54;24.90;99.90
51902;DHT22;37929;53.218;6.548;2022-08-25T08:50:33;25.00;99.90
51902;DHT22;37929;53.218;6.548;2022-08-25T08:58:08;25.30;99.90
51902;DHT22;37929;53.218;6.548;2022-08-25T09:00:43;25.40;99.90
51902;DHT22;37929;53.218;6.548;2022-08-25T09:06:12;25.60;99.90
51902;DHT22;37929;53.218;6.548;2022-08-25T09:08:42;25.60;99.90
51902;DHT22;37929;53.218;6.548;2022-08-25T09:11:17;25.70;99.90
51902;DHT22;37929;53.218;6.548;2022-08-25T09:13:56;25.90;99.90
51902;DHT22;37929;53.218;6.548;2022-08-25T09:20:00;26.00;99.90
51902;DHT22;37929;53.218;6.548;2022-08-25T09:25:40;26.30;99.90
51902;DHT22;37929;53.218;6.548;2022-08-25T09:31:01;26.50;99.90
51902;DHT22;37929;53.218;6.548;2022-08-25T09:33:29;26.60;99.90
51902;DHT22;37929;53.218;6.548;2022-08-25T09:35:56;26.60;99.90
51902;DHT22;37929;53.218;6.548;2022-08-25T09:38:23;26.70;99.90
51902;DHT22;37929;53.218;6.548;2022-08-25T09:40:53;26.80;99.90
51902;DHT22;37929;53.218;6.548;2022-08-25T09:48:54;27.00;99.90
51902;DHT22;37929;53.218;6.548;2022-08-25T09:53:58;27.20;99.90
51902;DHT22;37929;53.218;6.548;2022-08-25T09:56:27;27.30;99.90
51902;DHT22;37929;53.218;6.548;2022-08-25T09:58:54;27.30;99.10
51902;DHT22;37929;53.218;6.548;2022-08-25T10:01:23;27.40;99.20
51902;DHT22;37929;53.218;6.548;2022-08-25T10:04:02;27.50;99.10
51902;DHT22;37929;53.218;6.548;2022-08-25T10:06:33;27.60;97.50
51902;DHT22;37929;53.218;6.548;2022-08-25T10:09:05;27.60;97.00
51902;DHT22;37929;53.218;6.548;2022-08-25T10:11:49;27.60;97.00
51902;DHT22;37929;53.218;6.548;2022-08-25T10:17:16;27.70;96.50
51902;DHT22;37929;53.218;6.548;2022-08-25T10:20:31;27.80;96.50
51902;DHT22;37929;53.218;6.548;2022-08-25T10:22:40;27.80;95.60
51902;DHT22;37929;53.218;6.548;2022-08-25T10:25:09;27.80;96.30
51902;DHT22;37929;53.218;6.548;2022-08-25T10:33:14;27.90;96.00
51902;DHT22;37929;53.218;6.548;2022-08-25T10:36:12;27.90;96.00
51902;DHT22;37929;53.218;6.548;2022-08-25T10:38:43;28.00;95.90
51902;DHT22;37929;53.218;6.548;2022-08-25T10:44:10;28.10;95.60
51902;DHT22;37929;53.218;6.548;2022-08-25T10:49:46;28.20;95.80
51902;DHT22;37929;53.218;6.548;2022-08-25T10:52:36;28.20;95.20
51902;DHT22;37929;53.218;6.548;2022-08-25T11:00:22;28.30;93.40
51902;DHT22;37929;53.218;6.548;2022-08-25T11:03:03;28.20;93.70
51902;DHT22;37929;53.218;6.548;2022-08-25T11:05:54;28.20;93.70
51902;DHT22;37929;53.218;6.548;2022-08-25T11:08:36;28.30;93.30
51902;DHT22;37929;53.218;6.548;2022-08-25T11:19:28;28.40;92.40
51902;DHT22;37929;53.218;6.548;2022-08-25T11:22:12;28.40;93.00
51902;DHT22;37929;53.218;6.548;2022-08-25T11:27:54;28.40;93.90
51902;DHT22;37929;53.218;6.548;2022-08-25T11:30:24;28.40;92.40
51902;DHT22;37929;53.218;6.548;2022-08-25T11:32:52;28.50;92.30
51902;DHT22;37929;53.218;6.548;2022-08-25T11:35:49;28.50;92.30
51902;DHT22;37929;53.218;6.548;2022-08-25T11:45:07;28.50;93.00
51902;DHT22;37929;53.218;6.548;2022-08-25T11:51:53;28.70;93.00
51902;DHT22;37929;53.218;6.548;2022-08-25T11:56:54;28.90;91.70
51902;DHT22;37929;53.218;6.548;2022-08-25T12:02:43;29.00;91.30
51902;DHT22;37929;53.218;6.548;2022-08-25T12:08:04;29.20;90.20
51902;DHT22;37929;53.218;6.548;2022-08-25T12:19:22;29.40;90.00
51902;DHT22;37929;53.218;6.548;2022-08-25T12:21:48;29.50;88.40
51902;DHT22;37929;53.218;6.548;2022-08-25T12:27:08;29.60;87.80
51902;DHT22;37929;53.218;6.548;2022-08-25T12:29:44;29.50;86.80
51902;DHT22;37929;53.218;6.548;2022-08-25T12:35:27;29.70;84.10
51902;DHT22;37929;53.218;6.548;2022-08-25T12:38:13;29.80;83.40
51902;DHT22;37929;53.218;6.548;2022-08-25T12:45:49;29.90;80.90
51902;DHT22;37929;53.218;6.548;2022-08-25T12:54:10;29.90;80.90
51902;DHT22;37929;53.218;6.548;2022-08-25T12:56:41;29.90;80.90
51902;DHT22;37929;53.218;6.548;2022-08-25T12:59:32;29.90;80.70
51902;DHT22;37929;53.218;6.548;2022-08-25T13:15:47;30.10;80.20
51902;DHT22;37929;53.218;6.548;2022-08-25T13:18:32;30.10;80.30
51902;DHT22;37929;53.218;6.548;2022-08-25T13:21:18;30.20;80.40
51902;DHT22;37929;53.218;6.548;2022-08-25T13:23:51;30.20;78.10
51902;DHT22;37929;53.218;6.548;2022-08-25T13:26:25;30.20;76.80
51902;DHT22;37929;53.218;6.548;2022-08-25T13:28:57;30.30;75.70
51902;DHT22;37929;53.218;6.548;2022-08-25T13:31:23;30.30;75.80
51902;DHT22;37929;53.218;6.548;2022-08-25T13:34:05;30.30;75.80
51902;DHT22;37929;53.218;6.548;2022-08-25T13:36:40;30.40;74.60
51902;DHT22;37929;53.218;6.548;2022-08-25T13:39:26;30.40;73.70
51902;DHT22;37929;53.218;6.548;2022-08-25T13:41:55;30.40;74.70
51902;DHT22;37929;53.218;6.548;2022-08-25T13:44:24;30.40;75.30
51902;DHT22;37929;53.218;6.548;2022-08-25T13:47:09;30.40;77.50
51902;DHT22;37929;53.218;6.548;2022-08-25T13:49:36;30.40;77.60
51902;DHT22;37929;53.218;6.548;2022-08-25T13:52:03;30.40;77.40
51902;DHT22;37929;53.218;6.548;2022-08-25T13:54:40;30.40;77.00
51902;DHT22;37929;53.218;6.548;2022-08-25T13:57:16;30.40;75.70
51902;DHT22;37929;53.218;6.548;2022-08-25T13:59:43;30.50;76.60
51902;DHT22;37929;53.218;6.548;2022-08-25T14:02:13;30.50;76.00
51902;DHT22;37929;53.218;6.548;2022-08-25T14:04:59;30.50;75.50
51902;DHT22;37929;53.218;6.548;2022-08-25T14:07:27;30.50;74.70
51902;DHT22;37929;53.218;6.548;2022-08-25T14:10:30;30.50;76.40
51902;DHT22;37929;53.218;6.548;2022-08-25T14:15:53;30.60;73.70
51902;DHT22;37929;53.218;6.548;2022-08-25T14:18:29;30.60;73.70
51902;DHT22;37929;53.218;6.548;2022-08-25T14:20:56;30.60;74.60
51902;DHT22;37929;53.218;6.548;2022-08-25T14:23:25;30.50;74.90
51902;DHT22;37929;53.218;6.548;2022-08-25T14:25:53;30.50;73.10
51902;DHT22;37929;53.218;6.548;2022-08-25T14:28:25;30.50;73.90
51902;DHT22;37929;53.218;6.548;2022-08-25T14:31:11;30.50;74.60
51902;DHT22;37929;53.218;6.548;2022-08-25T14:33:45;30.50;74.80
51902;DHT22;37929;53.218;6.548;2022-08-25T14:36:12;30.40;74.90
51902;DHT22;37929;53.218;6.548;2022-08-25T14:38:38;30.40;73.20
51902;DHT22;37929;53.218;6.548;2022-08-25T14:41:05;30.40;73.60
51902;DHT22;37929;53.218;6.548;2022-08-25T14:43:32;30.40;74.10
51902;DHT22;37929;53.218;6.548;2022-08-25T14:45:58;30.40;74.30
51902;DHT22;37929;53.218;6.548;2022-08-25T14:48:48;30.40;74.50
51902;DHT22;37929;53.218;6.548;2022-08-25T14:51:16;30.40;75.40
51902;DHT22;37929;53.218;6.548;2022-08-25T14:53:42;30.40;73.70
51902;DHT22;37929;53.218;6.548;2022-08-25T14:56:09;30.40;73.70
51902;DHT22;37929;53.218;6.548;2022-08-25T14:58:35;30.40;74.20
51902;DHT22;37929;53.218;6.548;2022-08-25T15:01:01;30.40;75.40
51902;DHT22;37929;53.218;6.548;2022-08-25T15:03:34;30.30;75.30
51902;DHT22;37929;53.218;6.548;2022-08-25T15:06:01;30.40;74.60
51902;DHT22;37929;53.218;6.548;2022-08-25T15:08:27;30.40;74.20
51902;DHT22;37929;53.218;6.548;2022-08-25T15:11:12;30.40;74.50
51902;DHT22;37929;53.218;6.548;2022-08-25T15:13:39;30.30;75.30
51902;DHT22;37929;53.218;6.548;2022-08-25T15:16:05;30.30;74.70
51902;DHT22;37929;53.218;6.548;2022-08-25T15:18:32;30.20;75.10
51902;DHT22;37929;53.218;6.548;2022-08-25T15:21:15;30.20;75.20
51902;DHT22;37929;53.218;6.548;2022-08-25T15:23:43;30.20;74.80
51902;DHT22;37929;53.218;6.548;2022-08-25T15:26:11;30.10;76.10
51902;DHT22;37929;53.218;6.548;2022-08-25T15:28:45;30.00;76.30
51902;DHT22;37929;53.218;6.548;2022-08-25T15:31:14;29.90;74.40
51902;DHT22;37929;53.218;6.548;2022-08-25T15:33:40;29.90;75.40
51902;DHT22;37929;53.218;6.548;2022-08-25T15:36:08;29.90;74.40
51902;DHT22;37929;53.218;6.548;2022-08-25T15:38:37;29.90;74.30
51902;DHT22;37929;53.218;6.548;2022-08-25T15:41:04;29.80;74.20
51902;DHT22;37929;53.218;6.548;2022-08-25T15:43:30;29.80;74.50
51902;DHT22;37929;53.218;6.548;2022-08-25T15:45:56;29.80;74.40
51902;DHT22;37929;53.218;6.548;2022-08-25T15:48:22;29.80;75.70
51902;DHT22;37929;53.218;6.548;2022-08-25T15:50:53;29.80;75.50
51902;DHT22;37929;53.218;6.548;2022-08-25T15:53:20;29.80;74.50
51902;DHT22;37929;53.218;6.548;2022-08-25T15:55:47;29.80;74.20
51902;DHT22;37929;53.218;6.548;2022-08-25T15:58:13;29.70;74.70
51902;DHT22;37929;53.218;6.548;2022-08-25T16:00:38;29.70;74.30
51902;DHT22;37929;53.218;6.548;2022-08-25T16:03:06;29.70;74.30
51902;DHT22;37929;53.218;6.548;2022-08-25T16:05:34;29.80;74.30
51902;DHT22;37929;53.218;6.548;2022-08-25T16:08:00;29.80;74.80
51902;DHT22;37929;53.218;6.548;2022-08-25T16:10:26;29.70;75.50
51902;DHT22;37929;53.218;6.548;2022-08-25T16:12:51;29.70;75.90
51902;DHT22;37929;53.218;6.548;2022-08-25T16:15:17;29.60;75.50
51902;DHT22;37929;53.218;6.548;2022-08-25T16:17:43;29.50;75.10
51902;DHT22;37929;53.218;6.548;2022-08-25T16:20:10;29.50;75.30
51902;DHT22;37929;53.218;6.548;2022-08-25T16:22:35;29.40;76.90
51902;DHT22;37929;53.218;6.548;2022-08-25T16:25:02;29.50;75.30
51902;DHT22;37929;53.218;6.548;2022-08-25T16:27:28;29.40;75.40
51902;DHT22;37929;53.218;6.548;2022-08-25T16:29:54;29.40;75.90
51902;DHT22;37929;53.218;6.548;2022-08-25T16:32:20;29.40;75.10
51902;DHT22;37929;53.218;6.548;2022-08-25T16:34:46;29.30;76.20
51902;DHT22;37929;53.218;6.548;2022-08-25T16:37:12;29.40;75.60
51902;DHT22;37929;53.218;6.548;2022-08-25T16:39:38;29.40;75.80
51902;DHT22;37929;53.218;6.548;2022-08-25T16:42:08;29.30;75.00
51902;DHT22;37929;53.218;6.548;2022-08-25T16:44:34;29.30;74.90
51902;DHT22;37929;53.218;6.548;2022-08-25T16:47:01;29.40;74.80
51902;DHT22;37929;53.218;6.548;2022-08-25T16:49:27;29.40;74.60
51902;DHT22;37929;53.218;6.548;2022-08-25T16:51:53;29.30;74.90
51902;DHT22;37929;53.218;6.548;2022-08-25T16:54:19;29.20;75.40
51902;DHT22;37929;53.218;6.548;2022-08-25T16:57:03;29.20;75.90
51902;DHT22;37929;53.218;6.548;2022-08-25T16:59:29;29.10;75.40
51902;DHT22;37929;53.218;6.548;2022-08-25T17:01:55;29.10;76.00
51902;DHT22;37929;53.218;6.548;2022-08-25T17:04:20;29.00;76.30
51902;DHT22;37929;53.218;6.548;2022-08-25T17:06:46;29.00;75.90
51902;DHT22;37929;53.218;6.548;2022-08-25T17:09:13;29.00;75.30
51902;DHT22;37929;53.218;6.548;2022-08-25T17:11:42;29.00;75.70
51902;DHT22;37929;53.218;6.548;2022-08-25T17:14:15;29.00;75.40
51902;DHT22;37929;53.218;6.548;2022-08-25T17:16:42;28.90;75.50
51902;DHT22;37929;53.218;6.548;2022-08-25T17:19:09;28.90;76.60
51902;DHT22;37929;53.218;6.548;2022-08-25T17:21:45;29.00;75.30
51902;DHT22;37929;53.218;6.548;2022-08-25T17:24:11;29.00;75.90
51902;DHT22;37929;53.218;6.548;2022-08-25T17:26:39;28.90;75.90
51902;DHT22;37929;53.218;6.548;2022-08-25T17:29:06;28.90;76.70
51902;DHT22;37929;53.218;6.548;2022-08-25T17:31:32;28.80;76.90
51902;DHT22;37929;53.218;6.548;2022-08-25T17:33:59;28.70;76.80
51902;DHT22;37929;53.218;6.548;2022-08-25T17:36:26;28.60;77.00
51902;DHT22;37929;53.218;6.548;2022-08-25T17:38:51;28.60;77.40
51902;DHT22;37929;53.218;6.548;2022-08-25T17:41:18;28.50;77.30
51902;DHT22;37929;53.218;6.548;2022-08-25T17:43:43;28.50;77.00
51902;DHT22;37929;53.218;6.548;2022-08-25T17:46:10;28.50;77.10
51902;DHT22;37929;53.218;6.548;2022-08-25T17:48:37;28.50;77.40